createdAt,value
2018-07-09T00:01:06.105Z,94369.02
2018-07-09T00:03:33.746Z,94366.29
2018-07-09T00:06:01.698Z,94357.61
2018-07-09T00:08:29.408Z,94362.55
2018-07-09T00:11:06.073Z,94360.48
2018-07-09T00:13:34.831Z,94356.01
2018-07-09T00:16:02.754Z,94351.39
2018-07-09T00:18:30.536Z,94348.50
2018-07-09T00:20:58.246Z,94344.75
2018-07-09T00:23:26.014Z,94345.20
2018-07-09T00:25:54.474Z,94352.73
2018-07-09T00:28:22.630Z,94348.55
2018-07-09T00:30:50.367Z,94347.22
2018-07-09T00:33:18.651Z,94349.09
2018-07-09T00:35:46.847Z,94346.84
2018-07-09T00:38:14.662Z,94347.23
2018-07-09T00:40:42.410Z,94342.38
2018-07-09T00:43:10.167Z,94340.35
2018-07-09T00:45:37.850Z,94341.05
2018-07-09T00:48:05.703Z,94345.20
2018-07-09T00:50:34.250Z,94341.23
2018-07-09T00:53:01.958Z,94350.88
2018-07-09T00:55:30.313Z,94343.38
2018-07-09T00:57:58.023Z,94342.25
2018-07-09T01:00:25.692Z,94343.06
2018-07-09T01:02:53.478Z,94341.03
2018-07-09T01:05:21.199Z,94341.94
2018-07-09T01:07:48.939Z,94341.52
2018-07-09T01:10:17.593Z,94335.45
2018-07-09T01:12:45.314Z,94339.30
2018-07-09T01:15:13.434Z,94338.30
2018-07-09T01:17:41.146Z,94339.91
2018-07-09T01:20:08.859Z,94334.22
2018-07-09T01:22:36.646Z,94338.30
2018-07-09T01:25:04.500Z,94333.99
2018-07-09T01:27:32.292Z,94326.88
2018-07-09T01:30:05.968Z,94330.77
2018-07-09T01:32:33.813Z,94331.77
2018-07-09T01:35:01.533Z,94333.16
2018-07-09T01:37:29.430Z,94329.37
2018-07-09T01:39:57.148Z,94327.92
2018-07-09T01:42:25.418Z,94325.88
2018-07-09T01:44:53.085Z,94321.32
2018-07-09T01:47:20.854Z,94315.96
2018-07-09T01:49:48.630Z,94316.54
2018-07-09T01:52:16.789Z,94317.34
2018-07-09T01:54:44.586Z,94312.88
2018-07-09T01:57:12.258Z,94312.87
2018-07-09T01:59:39.965Z,94308.34
2018-07-09T02:02:08.633Z,94308.83
2018-07-09T02:04:36.397Z,94307.83
2018-07-09T02:07:04.326Z,94305.19
2018-07-09T02:09:32.041Z,94300.30
2018-07-09T02:11:59.783Z,94303.16
2018-07-09T02:14:27.482Z,94308.59
2018-07-09T02:16:55.154Z,94301.27
2018-07-09T02:19:22.827Z,94305.92
2018-07-09T02:21:50.502Z,94303.70
2018-07-09T02:24:18.758Z,94297.31
2018-07-09T02:26:46.459Z,94292.61
2018-07-09T02:29:14.198Z,94293.75
2018-07-09T02:31:41.899Z,94297.84
2018-07-09T02:34:09.593Z,94303.48
2018-07-09T02:36:37.283Z,94296.22
2018-07-09T02:39:05.671Z,94298.48
2018-07-09T02:41:33.424Z,94294.90
2018-07-09T02:44:01.151Z,94296.95
2018-07-09T02:46:28.833Z,94292.94
2018-07-09T02:48:56.523Z,94290.11
2018-07-09T02:51:24.638Z,94292.20
2018-07-09T02:53:52.786Z,94292.64
2018-07-09T02:56:20.464Z,94290.95
2018-07-09T02:58:48.246Z,94293.55
2018-07-09T03:01:16.056Z,94289.33
2018-07-09T03:03:43.623Z,94304.37
2018-07-09T03:06:11.339Z,94301.20
2018-07-09T03:08:39.022Z,94300.60
2018-07-09T03:11:06.738Z,94304.02
2018-07-09T03:13:34.511Z,94301.38
2018-07-09T03:16:02.228Z,94304.02
2018-07-09T03:18:29.940Z,94303.55
2018-07-09T03:20:57.632Z,94300.30
2018-07-09T03:23:25.387Z,94293.91
2018-07-09T03:25:53.474Z,94295.03
2018-07-09T03:28:21.128Z,94305.16
2018-07-09T03:30:49.152Z,94296.89
2018-07-09T03:33:16.890Z,94296.66
2018-07-09T03:35:45.283Z,94298.98
2018-07-09T03:38:13.017Z,94305.16
2018-07-09T03:40:40.762Z,94301.53
2018-07-09T03:43:08.531Z,94306.56
2018-07-09T03:45:36.249Z,94298.67
2018-07-09T03:48:04.142Z,94297.27
2018-07-09T03:50:32.170Z,94301.66
2018-07-09T03:52:59.887Z,94296.11
2018-07-09T03:55:27.622Z,94295.80
2018-07-09T03:57:55.311Z,94294.24
2018-07-09T04:00:23.109Z,94293.15
2018-07-09T04:02:50.832Z,94291.36
2018-07-09T04:05:18.560Z,94295.62
2018-07-09T04:07:46.347Z,94299.39
2018-07-09T04:10:14.178Z,94300.70
2018-07-09T04:12:41.874Z,94302.34
2018-07-09T04:15:09.621Z,94305.06
2018-07-09T04:17:37.379Z,94304.96
2018-07-09T04:20:05.112Z,94304.29
2018-07-09T04:22:32.802Z,94297.92
2018-07-09T04:25:00.486Z,94292.30
2018-07-09T04:27:28.174Z,94293.41
2018-07-09T04:29:55.837Z,94292.81
2018-07-09T04:32:23.533Z,94294.84
2018-07-09T04:34:51.225Z,94292.53
2018-07-09T04:37:18.941Z,94293.44
2018-07-09T04:39:46.630Z,94290.37
2018-07-09T04:42:14.290Z,94287.53
2018-07-09T04:44:42.247Z,94293.00
2018-07-09T04:47:10.826Z,94284.50
2018-07-09T04:49:38.472Z,94287.54
2018-07-09T04:52:06.243Z,94289.70
2018-07-09T04:54:33.942Z,94283.77
2018-07-09T04:57:02.903Z,94287.91
2018-07-09T04:59:30.601Z,94288.03
2018-07-09T05:01:58.291Z,94282.09
2018-07-09T05:04:26.182Z,94280.02
2018-07-09T05:06:53.928Z,94288.47
2018-07-09T05:09:21.584Z,94289.13
2018-07-09T05:11:49.516Z,94285.48
2018-07-09T05:14:17.186Z,94289.28
2018-07-09T05:16:44.838Z,94288.52
2018-07-09T05:19:12.519Z,94287.05
2018-07-09T05:21:40.242Z,94285.42
2018-07-09T05:24:07.907Z,94288.23
2018-07-09T05:26:36.021Z,94279.63
2018-07-09T05:29:03.885Z,94279.49
2018-07-09T05:31:31.586Z,94274.44
2018-07-09T05:33:59.475Z,94280.17
2018-07-09T05:36:27.139Z,94271.97
2018-07-09T05:38:55.300Z,94269.11
2018-07-09T05:41:23.105Z,94265.38
2018-07-09T05:43:50.978Z,94272.28
2018-07-09T05:46:18.703Z,94265.79
2018-07-09T05:48:46.497Z,94260.55
2018-07-09T05:51:14.219Z,94269.93
2018-07-09T05:53:41.943Z,94276.58
2018-07-09T05:56:09.634Z,94265.26
2018-07-09T05:58:37.389Z,94267.08
2018-07-09T06:01:05.101Z,94271.77
2018-07-09T06:03:32.854Z,94278.23
2018-07-09T06:06:00.591Z,94283.05
2018-07-09T06:08:28.302Z,94277.36
2018-07-09T06:10:56.018Z,94282.82
2018-07-09T06:13:23.718Z,94280.70
2018-07-09T06:15:51.467Z,94278.71
2018-07-09T06:18:19.950Z,94274.57
2018-07-09T06:20:47.655Z,94269.70
2018-07-09T06:23:15.462Z,94270.92
2018-07-09T06:25:43.151Z,94268.38
2018-07-09T06:28:10.867Z,94271.09
2018-07-09T06:30:38.596Z,94269.95
2018-07-09T06:33:06.640Z,94267.79
2018-07-09T06:35:34.308Z,94270.31
2018-07-09T06:38:02.098Z,94275.06
2018-07-09T06:40:29.791Z,94271.66
2018-07-09T06:42:57.516Z,94273.58
2018-07-09T06:45:25.198Z,94276.91
2018-07-09T06:47:52.898Z,94275.91
2018-07-09T06:50:20.586Z,94270.89
2018-07-09T06:52:48.310Z,94270.64
2018-07-09T06:55:16.004Z,94277.05
2018-07-09T06:57:43.715Z,94273.31
2018-07-09T07:00:11.451Z,94269.78
2018-07-09T07:02:39.256Z,94274.78
2018-07-09T07:05:07.046Z,94274.53
2018-07-09T07:07:34.777Z,94276.97
2018-07-09T07:10:02.551Z,94277.28
2018-07-09T07:12:30.287Z,94270.16
2018-07-09T07:14:57.999Z,94271.14
2018-07-09T07:17:25.693Z,94270.34
2018-07-09T07:19:53.483Z,94267.29
2018-07-09T07:22:21.259Z,94274.69
2018-07-09T07:24:48.975Z,94266.88
2018-07-09T07:27:16.733Z,94265.38
2018-07-09T07:29:44.583Z,94272.88
2018-07-09T07:32:12.575Z,94269.08
2018-07-09T07:34:40.302Z,94261.11
2018-07-09T07:37:08.065Z,94261.89
2018-07-09T07:39:35.777Z,94264.52
2018-07-09T07:42:03.511Z,94258.03
2018-07-09T07:44:31.248Z,94262.80
2018-07-09T07:46:58.943Z,94258.00
2018-07-09T07:49:26.672Z,94251.59
2018-07-09T07:51:54.927Z,94258.09
2018-07-09T07:54:22.948Z,94252.39
2018-07-09T07:56:50.620Z,94256.16
2018-07-09T07:59:18.359Z,94247.09
2018-07-09T08:01:46.053Z,94245.25
2018-07-09T08:04:13.751Z,94246.55
2018-07-09T08:06:41.482Z,94255.08
2018-07-09T08:09:09.166Z,94246.99
2018-07-09T08:11:48.562Z,94245.33
2018-07-09T08:14:04.823Z,94237.89
2018-07-09T08:16:32.522Z,94234.44
2018-07-09T08:19:00.251Z,94239.63
2018-07-09T08:21:27.946Z,94241.08
2018-07-09T08:23:55.671Z,94242.55
2018-07-09T08:26:23.396Z,94239.38
2018-07-09T08:28:51.289Z,94241.52
2018-07-09T08:31:19.056Z,94233.63
2018-07-09T08:33:46.744Z,94233.83
2018-07-09T08:36:14.466Z,94239.47
2018-07-09T08:38:42.178Z,94239.53
2018-07-09T08:41:09.906Z,94238.09
2018-07-09T08:43:37.582Z,94233.63
2018-07-09T08:46:05.334Z,94238.67
2018-07-09T08:48:33.050Z,94236.72
2018-07-09T08:51:00.730Z,94229.51
2018-07-09T08:53:28.475Z,94221.17
2018-07-09T08:55:56.198Z,94237.21
2018-07-09T08:58:23.922Z,94234.89
2018-07-09T09:00:51.715Z,94234.80
2018-07-09T09:03:19.395Z,94242.46
2018-07-09T09:05:47.071Z,94246.78
2018-07-09T09:08:14.816Z,94246.66
2018-07-09T09:10:42.580Z,94245.89
2018-07-09T09:13:10.300Z,94247.02
2018-07-09T09:15:37.982Z,94248.86
2018-07-09T09:18:05.771Z,94240.89
2018-07-09T09:20:33.466Z,94249.23
2018-07-09T09:23:01.259Z,94241.94
2018-07-09T09:25:29.053Z,94245.21
2018-07-09T09:27:56.758Z,94244.03
2018-07-09T09:30:24.412Z,94240.55
2018-07-09T09:32:52.147Z,94236.91
2018-07-09T09:35:19.815Z,94249.03
2018-07-09T09:37:47.575Z,94249.34
2018-07-09T09:40:15.303Z,94234.59
2018-07-09T09:42:43.042Z,94241.13
2018-07-09T09:45:10.802Z,94237.27
2018-07-09T09:47:38.516Z,94233.41
2018-07-09T09:50:06.278Z,94232.47
2018-07-09T09:52:34.488Z,94226.50
2018-07-09T09:55:02.232Z,94230.73
2018-07-09T09:57:29.935Z,94223.98
2018-07-09T09:59:57.631Z,94218.75
2018-07-09T10:02:25.350Z,94222.43
2018-07-09T10:04:53.066Z,94219.39
2018-07-09T10:07:20.798Z,94224.28
2018-07-09T10:09:48.799Z,94226.62
2018-07-09T10:12:16.487Z,94229.09
2018-07-09T10:14:44.202Z,94228.30
2018-07-09T10:17:11.915Z,94219.43
2018-07-09T10:19:40.890Z,94224.23
2018-07-09T10:22:08.643Z,94232.92
2018-07-09T10:24:36.355Z,94229.80
2018-07-09T10:27:04.163Z,94224.64
2018-07-09T10:29:31.845Z,94224.22
2018-07-09T10:31:59.558Z,94225.00
2018-07-09T10:34:27.277Z,94229.31
2018-07-09T10:36:54.993Z,94225.75
2018-07-09T10:39:22.708Z,94221.88
2018-07-09T10:41:50.428Z,94225.77
2018-07-09T10:44:18.150Z,94216.78
2018-07-09T10:46:45.826Z,94220.05
2018-07-09T10:49:13.540Z,94203.43
2018-07-09T10:51:41.264Z,94205.70
2018-07-09T10:54:09.230Z,94201.06
2018-07-09T10:56:36.967Z,94203.84
2018-07-09T10:59:04.659Z,94202.06
2018-07-09T11:01:32.410Z,94203.36
2018-07-09T11:04:00.146Z,94199.17
2018-07-09T11:06:28.100Z,94200.55
2018-07-09T11:08:55.791Z,94196.20
2018-07-09T11:11:23.489Z,94188.98
2018-07-09T11:13:51.661Z,94196.06
2018-07-09T11:16:19.409Z,94193.45
2018-07-09T11:18:47.157Z,94180.83
2018-07-09T11:21:15.115Z,94186.16
2018-07-09T11:23:42.812Z,94189.66
2018-07-09T11:26:10.522Z,94187.73
2018-07-09T11:28:38.281Z,94187.30
2018-07-09T11:31:05.944Z,94189.30
2018-07-09T11:33:33.681Z,94178.19
2018-07-09T11:36:01.435Z,94187.66
2018-07-09T11:38:29.106Z,94181.09
2018-07-09T11:40:56.858Z,94178.47
2018-07-09T11:43:24.561Z,94174.99
2018-07-09T11:45:52.292Z,94179.54
2018-07-09T11:48:19.962Z,94180.43
2018-07-09T11:50:57.864Z,94178.39
2018-07-09T11:53:25.554Z,94175.41
2018-07-09T11:55:53.246Z,94174.48
2018-07-09T11:58:21.172Z,94168.05
2018-07-09T12:00:48.868Z,94168.53
2018-07-09T12:03:16.594Z,94158.62
2018-07-09T12:05:44.261Z,94163.83
2018-07-09T12:08:11.942Z,94162.66
2018-07-09T12:10:39.646Z,94162.50
2018-07-09T12:13:07.561Z,94161.95
2018-07-09T12:15:35.231Z,94152.41
2018-07-09T12:18:02.903Z,94155.45
2018-07-09T12:20:30.928Z,94159.43
2018-07-09T12:22:58.656Z,94160.20
2018-07-09T12:25:26.355Z,94157.05
2018-07-09T12:27:54.128Z,94158.97
2018-07-09T12:30:21.855Z,94152.58
2018-07-09T12:32:49.567Z,94146.77
2018-07-09T12:35:17.244Z,94153.66
2018-07-09T12:37:44.964Z,94150.55
2018-07-09T12:40:12.643Z,94155.44
2018-07-09T12:42:40.414Z,94158.34
2018-07-09T12:45:08.103Z,94156.02
2018-07-09T12:47:35.843Z,94159.56
2018-07-09T12:50:03.544Z,94160.88
2018-07-09T12:52:31.311Z,94155.35
2018-07-09T12:54:58.971Z,94147.48
2018-07-09T12:57:26.652Z,94144.58
2018-07-09T12:59:54.359Z,94145.47
2018-07-09T13:02:22.054Z,94139.52
2018-07-09T13:04:49.775Z,94140.20
2018-07-09T13:07:17.435Z,94125.16
2018-07-09T13:09:45.151Z,94138.84
2018-07-09T13:12:17.527Z,94129.88
2018-07-09T13:14:45.238Z,94132.34
2018-07-09T13:17:12.947Z,94130.13
2018-07-09T13:19:40.735Z,94125.34
2018-07-09T13:22:08.454Z,94133.67
2018-07-09T13:24:36.073Z,94131.66
2018-07-09T13:27:03.798Z,94126.75
2018-07-09T13:29:31.822Z,94122.71
2018-07-09T13:31:59.583Z,94115.98
2018-07-09T13:34:27.380Z,94112.51
2018-07-09T13:36:55.183Z,94120.50
2018-07-09T13:39:22.878Z,94124.37
2018-07-09T13:41:50.538Z,94124.59
2018-07-09T13:44:18.323Z,94126.63
2018-07-09T13:46:46.086Z,94125.41
2018-07-09T13:49:13.815Z,94124.53
2018-07-09T13:51:41.533Z,94128.49
2018-07-09T13:54:09.216Z,94118.53
2018-07-09T13:56:36.906Z,94112.53
2018-07-09T13:59:04.706Z,94117.59
2018-07-09T14:01:32.409Z,94114.58
2018-07-09T14:04:00.133Z,94117.27
2018-07-09T14:06:27.825Z,94118.52
2018-07-09T14:08:55.563Z,94119.02
2018-07-09T14:11:23.319Z,94117.13
2018-07-09T14:13:51.086Z,94123.13
2018-07-09T14:16:18.755Z,94123.26
2018-07-09T14:18:46.452Z,94113.42
2018-07-09T14:21:15.606Z,94112.55
2018-07-09T14:23:44.121Z,94107.88
2018-07-09T14:26:13.395Z,94096.86
2018-07-09T14:28:41.118Z,94103.33
2018-07-09T14:31:08.854Z,94094.22
2018-07-09T14:33:36.486Z,94088.89
2018-07-09T14:36:04.482Z,94082.44
2018-07-09T14:38:32.151Z,94087.57
2018-07-09T14:40:59.885Z,94090.26
2018-07-09T14:43:27.581Z,94089.73
2018-07-09T14:45:55.230Z,94089.02
2018-07-09T14:48:22.951Z,94092.50
2018-07-09T14:50:50.631Z,94090.75
2018-07-09T14:53:18.284Z,94090.18
2018-07-09T14:55:45.969Z,94083.72
2018-07-09T14:58:13.655Z,94089.55
2018-07-09T15:00:43.218Z,94092.99
2018-07-09T15:03:10.940Z,94093.22
2018-07-09T15:05:38.591Z,94096.31
2018-07-09T15:08:06.282Z,94091.37
2018-07-09T15:10:33.912Z,94084.43
2018-07-09T15:13:01.621Z,94080.45
2018-07-09T15:15:29.281Z,94085.23
2018-07-09T15:17:56.978Z,94073.33
2018-07-09T15:20:24.630Z,94076.29
2018-07-09T15:22:52.397Z,94072.52
2018-07-09T15:25:20.112Z,94076.87
2018-07-09T15:27:47.739Z,94076.55
2018-07-09T15:30:15.388Z,94072.52
2018-07-09T15:32:43.079Z,94074.95
2018-07-09T15:35:12.554Z,94068.76
2018-07-09T15:37:40.210Z,94078.53
2018-07-09T15:40:07.878Z,94073.69
2018-07-09T15:42:35.689Z,94071.31
2018-07-09T15:45:03.457Z,94062.45
2018-07-09T15:47:33.691Z,94063.97
2018-07-09T15:50:01.333Z,94060.80
2018-07-09T15:52:28.961Z,94056.23
2018-07-09T15:54:56.626Z,94059.86
2018-07-09T15:57:24.285Z,94058.29
2018-07-09T15:59:51.933Z,94055.64
2018-07-09T16:02:20.218Z,94059.01
2018-07-09T16:04:47.950Z,94050.42
2018-07-09T16:07:15.597Z,94059.28
2018-07-09T16:09:43.279Z,94046.97
2018-07-09T16:12:10.916Z,94058.23
2018-07-09T16:14:38.608Z,94050.95
2018-07-09T16:17:06.363Z,94054.48
2018-07-09T16:19:34.034Z,94047.83
2018-07-09T16:22:01.747Z,94038.44
2018-07-09T16:24:29.438Z,94033.34
2018-07-09T16:26:57.192Z,94043.00
2018-07-09T16:29:25.054Z,94041.36
2018-07-09T16:31:52.525Z,94041.92
2018-07-09T16:34:20.167Z,94035.48
2018-07-09T16:36:47.794Z,94037.91
2018-07-09T16:39:15.398Z,94042.70
2018-07-09T16:41:43.062Z,94030.69
2018-07-09T16:44:10.761Z,94036.86
2018-07-09T16:46:38.460Z,94033.13
2018-07-09T16:49:06.107Z,94032.83
2018-07-09T16:51:33.826Z,94032.59
2018-07-09T16:54:01.503Z,94034.17
2018-07-09T16:56:29.190Z,94037.48
2018-07-09T16:58:56.851Z,94037.50
2018-07-09T17:01:24.518Z,94036.67
2018-07-09T17:03:53.014Z,94033.45
2018-07-09T17:06:20.680Z,94037.75
2018-07-09T17:08:49.776Z,94039.35
2018-07-09T17:11:17.415Z,94040.13
2018-07-09T17:13:45.377Z,94046.81
2018-07-09T17:16:13.208Z,94040.67
2018-07-09T17:18:40.892Z,94046.89
2018-07-09T17:21:08.547Z,94049.82
2018-07-09T17:23:36.182Z,94040.94
2018-07-09T17:26:04.480Z,94040.20
2018-07-09T17:28:32.106Z,94041.50
2018-07-09T17:30:59.926Z,94044.25
2018-07-09T17:33:27.643Z,94035.91
2018-07-09T17:35:55.294Z,94044.81
2018-07-09T17:38:22.981Z,94041.56
2018-07-09T17:40:50.644Z,94041.09
2018-07-09T17:43:18.666Z,94039.48
2018-07-09T17:45:47.748Z,94044.31
2018-07-09T17:48:16.458Z,94054.55
2018-07-09T17:50:44.195Z,94051.59
2018-07-09T17:53:11.865Z,94058.00
2018-07-09T17:55:39.541Z,94059.38
2018-07-09T17:58:07.254Z,94057.78
2018-07-09T18:00:36.466Z,94060.72
2018-07-09T18:03:04.208Z,94058.31
2018-07-09T18:05:31.888Z,94060.45
2018-07-09T18:07:59.555Z,94066.87
2018-07-09T18:10:27.277Z,94061.52
2018-07-09T18:12:55.126Z,94064.47
2018-07-09T18:15:22.766Z,94063.13
2018-07-09T18:17:50.441Z,94065.23
2018-07-09T18:20:18.522Z,94066.30
2018-07-09T18:22:46.187Z,94063.61
2018-07-09T18:25:13.926Z,94068.97
2018-07-09T18:27:41.692Z,94060.66
2018-07-09T18:30:09.336Z,94065.22
2018-07-09T18:32:37.038Z,94066.00
2018-07-09T18:35:04.741Z,94062.80
2018-07-09T18:37:32.617Z,94068.65
2018-07-09T18:40:00.301Z,94060.84
2018-07-09T18:42:27.962Z,94061.34
2018-07-09T18:44:55.640Z,94066.13
2018-07-09T18:47:23.338Z,94061.63
2018-07-09T18:49:51.022Z,94064.50
2018-07-09T18:52:18.691Z,94067.92
2018-07-09T18:54:46.411Z,94068.70
2018-07-09T18:57:14.459Z,94064.37
2018-07-09T18:59:42.123Z,94055.80
2018-07-09T19:02:09.809Z,94062.47
2018-07-09T19:04:38.042Z,94065.93
2018-07-09T19:07:08.133Z,94072.30
2018-07-09T19:09:36.479Z,94070.74
2018-07-09T19:12:04.881Z,94071.22
2018-07-09T19:14:34.998Z,94075.48
2018-07-09T19:18:14.414Z,94078.10
2018-07-09T19:21:16.761Z,94073.25
2018-07-09T19:23:43.958Z,94068.35
2018-07-09T19:26:11.120Z,94067.76
2018-07-09T19:28:38.271Z,94069.31
2018-07-09T19:31:05.331Z,94074.66
2018-07-09T19:33:32.525Z,94079.99
2018-07-09T19:35:59.694Z,94083.12
2018-07-09T19:38:26.868Z,94081.22
2018-07-09T19:40:56.183Z,94086.53
2018-07-09T19:43:23.349Z,94088.88
2018-07-09T19:45:50.737Z,94093.20
2018-07-09T19:48:17.844Z,94087.33
2018-07-09T19:50:45.406Z,94092.07
2018-07-09T19:53:12.649Z,94080.83
2018-07-09T19:55:40.346Z,94086.45
2018-07-09T19:58:07.548Z,94084.67
2018-07-09T20:00:35.557Z,94080.05
2018-07-09T20:03:03.213Z,94085.39
2018-07-09T20:05:31.743Z,94089.03
2018-07-09T20:07:59.130Z,94089.47
2018-07-09T20:10:31.955Z,94091.80
2018-07-09T20:13:03.925Z,94095.33
2018-07-09T20:15:36.729Z,94095.56
2018-07-09T20:18:05.220Z,94093.70
2018-07-09T20:20:33.470Z,94090.75
2018-07-09T20:23:00.619Z,94098.94
2018-07-09T20:25:28.746Z,94093.05
2018-07-09T20:27:55.903Z,94106.66
2018-07-09T20:30:23.953Z,94110.21
2018-07-09T20:32:51.060Z,94113.64
2018-07-09T20:35:18.211Z,94111.97
2018-07-09T20:37:45.392Z,94109.25
2018-07-09T20:40:12.664Z,94115.56
2018-07-09T20:42:39.782Z,94118.80
2018-07-09T20:45:06.945Z,94120.55
2018-07-09T20:47:34.269Z,94120.14
2018-07-09T20:50:01.479Z,94126.58
2018-07-09T20:52:28.735Z,94122.63
2018-07-09T20:54:55.898Z,94129.81
2018-07-09T20:57:23.108Z,94130.34
2018-07-09T20:59:51.163Z,94122.70
2018-07-09T21:02:18.363Z,94127.16
2018-07-09T21:04:45.583Z,94127.91
2018-07-09T21:07:12.662Z,94124.26
2018-07-09T21:09:39.771Z,94122.77
2018-07-09T21:12:09.202Z,94120.75
2018-07-09T21:14:36.290Z,94124.84
2018-07-09T21:17:03.356Z,94110.36
2018-07-09T21:19:30.426Z,94115.63
2018-07-09T21:21:57.855Z,94114.92
2018-07-09T21:24:24.956Z,94121.44
2018-07-09T21:26:52.082Z,94115.83
2018-07-09T21:29:19.231Z,94115.06
2018-07-09T21:31:46.370Z,94112.05
2018-07-09T21:34:13.476Z,94109.20
2018-07-09T21:36:41.167Z,94101.86
2018-07-09T21:39:08.299Z,94104.45
2018-07-09T21:41:35.378Z,94104.95
2018-07-09T21:44:02.470Z,94103.98
2018-07-09T21:46:29.545Z,94101.86
2018-07-09T21:48:56.622Z,94101.58
2018-07-09T21:51:23.709Z,94100.46
2018-07-09T21:53:50.778Z,94095.52
2018-07-09T21:56:17.970Z,94090.19
2018-07-09T21:58:45.036Z,94094.20
2018-07-09T22:01:12.215Z,94090.92
2018-07-09T22:03:39.210Z,94087.61
2018-07-09T22:06:06.288Z,94091.23
2018-07-09T22:08:33.393Z,94082.76
2018-07-09T22:11:00.596Z,94085.34
2018-07-09T22:13:27.678Z,94087.25
2018-07-09T22:15:54.809Z,94086.94
2018-07-09T22:18:21.867Z,94076.81
2018-07-09T22:20:48.942Z,94073.00
2018-07-09T22:23:16.046Z,94073.94
2018-07-09T22:25:43.132Z,94071.20
2018-07-09T22:28:10.214Z,94072.23
2018-07-09T22:30:37.870Z,94074.43
2018-07-09T22:33:05.528Z,94066.91
2018-07-09T22:35:33.175Z,94070.08
2018-07-09T22:38:00.806Z,94064.96
2018-07-09T22:40:28.438Z,94067.54
2018-07-09T22:42:56.182Z,94064.59
2018-07-09T22:45:23.829Z,94062.59
2018-07-09T22:47:51.503Z,94056.45
2018-07-09T22:50:19.138Z,94057.73
2018-07-09T22:52:46.759Z,94055.04
2018-07-09T22:55:20.706Z,94049.28
2018-07-09T22:57:48.350Z,94047.52
2018-07-09T23:00:17.014Z,94046.13
2018-07-09T23:02:46.178Z,94045.18
2018-07-09T23:05:13.920Z,94042.38
2018-07-09T23:07:41.644Z,94043.84
2018-07-09T23:10:15.074Z,94036.09
2018-07-09T23:13:15.743Z,94035.78
2018-07-09T23:15:49.799Z,94042.00
2018-07-09T23:18:23.298Z,94041.82
2018-07-09T23:20:56.530Z,94044.08
2018-07-09T23:23:23.701Z,94043.80
2018-07-09T23:25:50.855Z,94043.50
2018-07-09T23:28:18.019Z,94041.42
2018-07-09T23:30:45.171Z,94037.90
2018-07-09T23:33:12.315Z,94039.81
2018-07-09T23:35:39.470Z,94041.39
2018-07-09T23:38:06.699Z,94034.94
2018-07-09T23:40:33.834Z,94040.35
2018-07-09T23:43:00.994Z,94037.86
2018-07-09T23:45:28.142Z,94047.11
2018-07-09T23:47:55.354Z,94048.13
2018-07-09T23:50:22.486Z,94050.78
2018-07-09T23:52:49.642Z,94044.66
2018-07-09T23:55:16.768Z,94043.22
2018-07-09T23:57:53.990Z,94050.43
